Terminal Aerodrome Forecast
Issued by NWS Jackson, MS

Home | Current Version | Previous Version | Text Only | Print | Product List | Glossary On
Versions: 1 2 3 4 5 6 7 8 9 10 11 12 13 14 15 16 17 18 19 20 21 22
000
FTUS44 KJAN 051300 AAA
TAFGWO
TAF AMD
KGWO 051331Z 0514/0612 36015G25KT 3SM BR SCT020 OVC025
     FM051700 01015G25KT P6SM BKN010 OVC025
     FM051900 01013G22KT P6SM BKN020 BKN030
     FM060000 36007KT P6SM SKC=

USA.gov is the U.S. government's official web portal to all federal, state and local government web resources and services.